Carbondale, Kansas
Current Conditions -  °F | °C
As of 12:53 PM on Friday 31 Oct 2014 (Local Time) from KFOE Reporting Station
Clear Clear  
Wind Chill: 35°   Ceiling: Unl
Heat Index: 43°   Visibility: 10mi
Dew Point: 20°   Wind: 16mph
Humidity: 40%   Direction: 360°N
Pressure: 30.5"   Gusts: 21mph
Location:  38.82°N, 95.69°W
Report Text: KFOE 311753Z 36014G18KT 10SM CLR 06/M07 A3050 RMK AO2 SLP333 T00611067 10067 20006 58001
Loading
Personal Weather Stations






























Interactive Weather Map
Tropical Storm Tracking
New forecast layout! Learn more

10-Day Weather Forecast

Advertisements
Track Severe Weather on mobile